Time;durP1;ratioP1;P1;durP2;ratioP2;P2;SDS_P1;SDS_P2;PMS_P1;PMS_P2;Temp;Humidity;BMP_temperature;BMP_pressure;BME280_temperature;BME280_humidity;BME280_pressure;Samples;Min_cycle;Max_cycle;Signal;HPM_P1;HPM_P2
2022/05/22 00:00:11;;;;;;;1999.90;999.90;;;14.20;99.90;;;;;;5035477;28;20471;-67
2022/05/22 00:02:38;;;;;;;1999.90;999.90;;;14.20;99.90;;;;;;5042201;28;20521;-68
2022/05/22 00:05:06;;;;;;;1999.90;999.90;;;14.30;99.90;;;;;;5044734;28;20467;-68
2022/05/22 00:07:32;;;;;;;1999.90;999.90;;;14.20;99.90;;;;;;5043390;28;20541;-68
2022/05/22 00:10:01;;;;;;;1999.90;999.90;;;14.20;99.90;;;;;;5042681;28;20876;-68
2022/05/22 00:12:28;;;;;;;1999.90;999.90;;;14.20;99.90;;;;;;5038554;28;20463;-68
2022/05/22 00:14:56;;;;;;;1999.90;999.90;;;14.10;99.90;;;;;;5038888;28;20462;-68
2022/05/22 00:17:22;;;;;;;1999.90;999.90;;;14.10;99.90;;;;;;5031477;28;21029;-68
2022/05/22 00:19:49;;;;;;;1999.90;999.90;;;14.10;99.90;;;;;;5033601;28;20470;-68
2022/05/22 00:22:16;;;;;;;1999.90;999.90;;;14.00;99.90;;;;;;5032505;28;20466;-69
2022/05/22 00:24:43;;;;;;;1999.90;999.90;;;13.90;99.90;;;;;;5026997;28;20494;-71
2022/05/22 00:27:09;;;;;;;1999.90;999.90;;;13.80;99.90;;;;;;5026923;28;20560;-70
2022/05/22 00:29:37;;;;;;;1999.90;999.90;;;13.70;99.90;;;;;;5028385;28;20455;-71
2022/05/22 00:32:06;;;;;;;1999.90;999.90;;;13.70;99.90;;;;;;5029578;28;20461;-70
2022/05/22 00:34:33;;;;;;;1999.90;999.90;;;13.70;99.90;;;;;;5030796;28;20514;-70
2022/05/22 00:37:00;;;;;;;1999.90;999.90;;;13.60;99.90;;;;;;5030410;28;20478;-70
2022/05/22 00:39:26;;;;;;;1999.90;999.90;;;13.50;99.90;;;;;;5029646;28;20466;-70
2022/05/22 00:41:55;;;;;;;1999.90;999.90;;;13.40;99.90;;;;;;5035480;28;20598;-70
2022/05/22 00:44:22;;;;;;;1999.90;999.90;;;13.30;99.90;;;;;;5036110;28;20893;-70
2022/05/22 00:46:50;;;;;;;1999.90;999.90;;;13.10;99.90;;;;;;5036858;28;21001;-70
2022/05/22 00:49:22;;;;;;;1999.90;999.90;;;13.00;99.90;;;;;;5028567;28;20463;-70
2022/05/22 00:51:53;;;;;;;1999.90;999.90;;;13.00;99.90;;;;;;5034222;28;20914;-70
2022/05/22 00:54:23;;;;;;;1999.90;999.90;;;13.00;99.90;;;;;;5032161;28;20458;-70
2022/05/22 00:56:55;;;;;;;1999.90;999.90;;;13.00;99.90;;;;;;5025136;28;20888;-69
2022/05/22 00:59:26;;;;;;;1999.90;999.90;;;13.00;99.90;;;;;;5034387;28;20521;-70
2022/05/22 01:01:56;;;;;;;1999.90;999.90;;;13.10;99.90;;;;;;5030879;28;20467;-70
2022/05/22 01:04:27;;;;;;;1999.90;999.90;;;13.10;99.90;;;;;;5029626;28;20532;-70
2022/05/22 01:06:54;;;;;;;1999.90;999.90;;;13.10;99.90;;;;;;5026951;28;20906;-71
2022/05/22 01:09:21;;;;;;;1999.90;999.90;;;13.10;99.90;;;;;;5031187;28;20462;-71
2022/05/22 01:11:50;;;;;;;1999.90;999.90;;;13.10;99.90;;;;;;5032194;28;20460;-71
2022/05/22 01:14:21;;;;;;;1999.90;999.90;;;13.10;99.90;;;;;;5036226;28;20454;-70
2022/05/22 01:16:48;;;;;;;1999.90;999.90;;;13.10;99.90;;;;;;5034634;28;20478;-71
2022/05/22 01:19:18;;;;;;;1999.90;999.90;;;13.00;99.90;;;;;;5032817;28;20485;-70
2022/05/22 01:21:53;;;;;;;1999.90;999.90;;;13.00;99.90;;;;;;5035930;28;20521;-71
2022/05/22 01:24:20;;;;;;;1999.90;999.90;;;12.90;99.90;;;;;;5035591;28;20486;-70
2022/05/22 01:26:47;;;;;;;1999.90;999.90;;;12.90;99.90;;;;;;5037640;28;20547;-71
2022/05/22 01:29:14;;;;;;;1999.90;999.90;;;13.00;99.90;;;;;;5032137;28;20463;-70
2022/05/22 01:31:40;;;;;;;1999.90;999.90;;;13.00;99.90;;;;;;5035758;28;20463;-70
2022/05/22 01:34:07;;;;;;;1999.90;999.90;;;13.00;99.90;;;;;;5035275;28;20467;-71
2022/05/22 01:36:34;;;;;;;1999.90;999.90;;;12.90;99.90;;;;;;5031863;28;20539;-71
2022/05/22 01:39:02;;;;;;;1999.90;999.90;;;12.80;99.90;;;;;;5032600;28;20467;-71
2022/05/22 01:41:29;;;;;;;1999.90;999.90;;;12.90;99.90;;;;;;5031485;28;20899;-70
2022/05/22 01:43:55;;;;;;;1999.90;999.90;;;12.90;99.90;;;;;;5036972;28;20483;-71
2022/05/22 01:46:22;;;;;;;1999.90;999.90;;;12.90;99.90;;;;;;5033223;28;20544;-71
2022/05/22 01:48:49;;;;;;;1999.90;999.90;;;12.90;99.90;;;;;;5040372;28;20892;-70
2022/05/22 01:51:15;;;;;;;1999.90;999.90;;;12.80;99.90;;;;;;5033209;28;20950;-70
2022/05/22 01:53:42;;;;;;;1999.90;999.90;;;12.70;99.90;;;;;;5032153;28;20989;-71
2022/05/22 01:56:10;;;;;;;1999.90;999.90;;;12.70;99.90;;;;;;5040315;28;20578;-70
2022/05/22 01:58:37;;;;;;;1999.90;999.90;;;12.70;99.90;;;;;;5034995;28;20493;-71
2022/05/22 02:01:03;;;;;;;1999.90;999.90;;;12.60;99.90;;;;;;5033092;28;20497;-70
2022/05/22 02:03:30;;;;;;;1999.90;999.90;;;12.40;99.90;;;;;;5033319;28;20487;-69
2022/05/22 02:05:57;;;;;;;1999.90;999.90;;;12.40;99.90;;;;;;5037393;28;20516;-70
2022/05/22 02:08:23;;;;;;;1999.90;999.90;;;12.30;99.90;;;;;;5035996;28;21214;-71
2022/05/22 02:10:52;;;;;;;1999.90;999.90;;;12.30;99.90;;;;;;5034570;28;20458;-71
2022/05/22 02:13:22;;;;;;;1999.90;999.90;;;12.30;99.90;;;;;;5032518;28;20258;-70
2022/05/22 02:15:49;;;;;;;1999.90;999.90;;;12.30;99.90;;;;;;5037259;28;20468;-71
2022/05/22 02:18:16;;;;;;;1999.90;999.90;;;12.30;99.90;;;;;;5038066;28;20552;-69
2022/05/22 02:20:43;;;;;;;1999.90;999.90;;;12.20;99.90;;;;;;5032270;28;20517;-71
2022/05/22 02:23:10;;;;;;;1999.90;999.90;;;12.20;99.90;;;;;;5034757;28;20467;-70
2022/05/22 02:25:39;;;;;;;1999.90;999.90;;;12.20;99.90;;;;;;5030649;28;21235;-71
2022/05/22 02:28:09;;;;;;;1999.90;999.90;;;12.20;99.90;;;;;;5033489;28;20491;-71
2022/05/22 02:30:39;;;;;;;1999.90;999.90;;;12.20;99.90;;;;;;5031637;28;20900;-70
2022/05/22 02:33:06;;;;;;;1999.90;999.90;;;12.20;99.90;;;;;;5037834;28;20532;-71
2022/05/22 02:35:33;;;;;;;1999.90;999.90;;;12.20;99.90;;;;;;5032688;28;20529;-71
2022/05/22 02:38:01;;;;;;;1999.90;999.90;;;12.00;99.90;;;;;;5033686;28;21063;-70
2022/05/22 02:40:30;;;;;;;1999.90;999.90;;;11.90;99.90;;;;;;5033416;28;20544;-70
2022/05/22 02:42:58;;;;;;;1999.90;999.90;;;11.80;99.90;;;;;;5033496;28;21017;-70
2022/05/22 02:45:28;;;;;;;1999.90;999.90;;;11.70;99.90;;;;;;5031755;28;20487;-70
2022/05/22 02:47:56;;;;;;;1999.90;999.90;;;11.70;99.90;;;;;;5040318;28;20479;-71
2022/05/22 02:50:25;;;;;;;1999.90;999.90;;;11.60;99.90;;;;;;5032301;28;20459;-69
2022/05/22 02:52:52;;;;;;;1999.90;999.90;;;11.50;99.90;;;;;;5032680;28;20466;-71
2022/05/22 02:55:20;;;;;;;1999.90;999.90;;;11.60;99.90;;;;;;5030653;28;20513;-70
2022/05/22 02:57:47;;;;;;;1999.90;999.90;;;11.70;99.90;;;;;;5030498;28;20475;-71
2022/05/22 03:00:17;;;;;;;1999.90;999.90;;;11.80;99.90;;;;;;5032239;28;20451;-70
2022/05/22 03:02:44;;;;;;;1999.90;999.90;;;12.00;99.90;;;;;;5036667;28;20459;-70
2022/05/22 03:05:13;;;;;;;1999.90;999.90;;;12.00;99.90;;;;;;5037047;28;20478;-71
2022/05/22 03:07:40;;;;;;;1999.90;999.90;;;12.00;99.90;;;;;;5027287;28;21081;-70
2022/05/22 03:10:10;;;;;;;1999.90;999.90;;;12.00;99.90;;;;;;5035324;28;20504;-70
2022/05/22 03:12:37;;;;;;;1999.90;999.90;;;12.00;99.90;;;;;;5039107;28;20911;-71
2022/05/22 03:15:06;;;;;;;1999.90;999.90;;;12.00;99.90;;;;;;5031350;28;20459;-70
2022/05/22 03:17:32;;;;;;;1999.90;999.90;;;12.00;99.90;;;;;;5031367;28;20541;-71
2022/05/22 03:19:59;;;;;;;1999.90;999.90;;;12.00;99.90;;;;;;5029113;28;20463;-71
2022/05/22 03:22:27;;;;;;;1999.90;999.90;;;11.90;99.90;;;;;;5026559;28;20454;-71
2022/05/22 03:24:55;;;;;;;1999.90;999.90;;;12.00;99.90;;;;;;5031650;28;20490;-71
2022/05/22 03:27:22;;;;;;;1999.90;999.90;;;12.00;99.90;;;;;;5031384;28;20544;-70
2022/05/22 03:29:50;;;;;;;1999.90;999.90;;;12.10;99.90;;;;;;5034674;28;20954;-71
2022/05/22 03:32:17;;;;;;;1999.90;999.90;;;12.10;99.90;;;;;;5036540;28;20498;-70
2022/05/22 03:34:44;;;;;;;1999.90;999.90;;;12.30;99.90;;;;;;5032281;28;20552;-70
2022/05/22 03:37:12;;;;;;;1999.90;999.90;;;12.30;99.90;;;;;;5036869;28;20524;-71
2022/05/22 03:39:40;;;;;;;1999.90;999.90;;;12.40;99.90;;;;;;5035631;28;20467;-71
2022/05/22 03:42:07;;;;;;;1999.90;999.90;;;12.50;99.90;;;;;;5034713;28;20462;-71
2022/05/22 03:44:35;;;;;;;1999.90;999.90;;;12.50;99.90;;;;;;5030087;28;20479;-70
2022/05/22 03:47:02;;;;;;;1999.90;999.90;;;12.50;99.90;;;;;;5024232;28;20706;-68
2022/05/22 03:49:29;;;;;;;1999.90;999.90;;;12.50;99.90;;;;;;5026990;28;20872;-71
2022/05/22 03:51:55;;;;;;;1999.90;999.90;;;12.50;99.90;;;;;;5034075;28;20509;-71
2022/05/22 03:54:22;;;;;;;1999.90;999.90;;;12.60;99.90;;;;;;5036383;28;20477;-70
2022/05/22 03:56:50;;;;;;;1999.90;999.90;;;12.60;99.90;;;;;;5031174;28;21002;-70
2022/05/22 03:59:17;;;;;;;1999.90;999.90;;;12.60;99.90;;;;;;5031686;28;20463;-70
2022/05/22 04:01:43;;;;;;;1999.90;999.90;;;12.60;99.90;;;;;;5036719;28;20459;-70
2022/05/22 04:04:10;;;;;;;1999.90;999.90;;;12.70;99.90;;;;;;5031810;28;20529;-71
2022/05/22 04:06:36;;;;;;;1999.90;999.90;;;12.20;99.90;;;;;;5030760;28;20487;-70
2022/05/22 04:09:03;;;;;;;1999.90;999.90;;;11.80;99.90;;;;;;5032725;28;20533;-71
2022/05/22 04:11:30;;;;;;;1999.90;999.90;;;11.70;99.90;;;;;;5028796;28;20998;-70
2022/05/22 04:13:58;;;;;;;1999.90;999.90;;;11.50;99.90;;;;;;5034468;28;20463;-70
2022/05/22 04:16:25;;;;;;;1999.90;999.90;;;11.40;99.90;;;;;;5028189;28;20543;-70
2022/05/22 04:18:51;;;;;;;1999.90;999.90;;;11.30;99.90;;;;;;5035258;28;20468;-70
2022/05/22 04:21:18;;;;;;;1999.90;999.90;;;11.30;99.90;;;;;;5035101;28;20458;-71
2022/05/22 04:26:30;;;;;;;1999.90;999.90;;;11.70;99.90;;;;;;5029095;28;20501;-71
2022/05/22 04:28:58;;;;;;;1999.90;999.90;;;12.00;99.90;;;;;;5031468;28;20868;-70
2022/05/22 04:31:25;;;;;;;1999.90;999.90;;;12.20;99.90;;;;;;5030751;28;20516;-70
2022/05/22 04:33:52;;;;;;;1999.90;999.90;;;12.50;99.90;;;;;;5030892;28;21164;-71
2022/05/22 04:36:18;;;;;;;1999.90;999.90;;;12.40;99.90;;;;;;5033519;28;20487;-71
2022/05/22 04:38:45;;;;;;;1999.90;999.90;;;12.60;99.90;;;;;;5028908;28;20471;-71
2022/05/22 04:41:11;;;;;;;1999.90;999.90;;;12.80;99.90;;;;;;5029659;28;20463;-70
2022/05/22 04:43:38;;;;;;;1999.90;999.90;;;13.10;99.90;;;;;;5028104;28;20471;-71
2022/05/22 04:46:08;;;;;;;1999.90;999.90;;;13.40;99.90;;;;;;5031035;28;20928;-68
2022/05/22 04:48:35;;;;;;;1999.90;999.90;;;13.70;99.90;;;;;;5029843;28;21035;-68
2022/05/22 04:51:01;;;;;;;1999.90;999.90;;;14.20;99.90;;;;;;4893242;28;21075;-69
2022/05/22 04:53:29;;;;;;;1999.90;999.90;;;14.20;99.90;;;;;;5037221;28;20992;-69
2022/05/22 04:55:55;;;;;;;1999.90;999.90;;;14.50;99.90;;;;;;5032147;28;20551;-69
2022/05/22 04:58:22;;;;;;;1999.90;999.90;;;14.90;99.90;;;;;;5037246;28;20876;-69
2022/05/22 05:00:49;;;;;;;1999.90;999.90;;;15.20;99.90;;;;;;5039517;28;20463;-69
2022/05/22 05:03:17;;;;;;;1999.90;999.90;;;15.30;99.90;;;;;;5038765;28;20470;-69
2022/05/22 05:05:44;;;;;;;1999.90;999.90;;;15.30;99.90;;;;;;5035272;28;20549;-69
2022/05/22 05:08:10;;;;;;;1999.90;999.90;;;15.60;99.90;;;;;;5041806;28;20458;-69
2022/05/22 05:10:37;;;;;;;1999.90;999.90;;;15.60;99.90;;;;;;5037353;28;20520;-69
2022/05/22 05:13:04;;;;;;;1999.90;999.90;;;15.10;99.90;;;;;;5034336;28;20969;-69
2022/05/22 05:15:31;;;;;;;1999.90;999.90;;;15.10;99.90;;;;;;5033945;28;20487;-68
2022/05/22 05:17:58;;;;;;;1999.90;999.90;;;15.10;99.90;;;;;;5034393;28;20890;-69
2022/05/22 05:20:26;;;;;;;1999.90;999.90;;;15.00;99.90;;;;;;5034183;28;20513;-67
2022/05/22 05:22:52;;;;;;;1999.90;999.90;;;15.00;99.90;;;;;;5031955;28;20455;-69
2022/05/22 05:25:19;;;;;;;1999.90;999.90;;;15.10;99.90;;;;;;5039414;28;20488;-69
2022/05/22 05:27:46;;;;;;;1999.90;999.90;;;14.90;99.90;;;;;;5056604;22;20528;-67
2022/05/22 05:30:14;;;;;;;1999.90;999.90;;;15.10;99.90;;;;;;5052846;28;20458;-67
2022/05/22 05:32:41;;;;;;;1999.90;999.90;;;15.10;99.90;;;;;;5051933;28;20471;-65
2022/05/22 05:35:11;;;;;;;1999.90;999.90;;;15.30;99.90;;;;;;5047762;28;20466;-64
2022/05/22 05:37:39;;;;;;;1999.90;999.90;;;15.40;99.90;;;;;;5052427;28;20493;-65
2022/05/22 05:40:08;;;;;;;1999.90;999.90;;;15.70;99.90;;;;;;5055496;28;21254;-64
2022/05/22 05:42:36;;;;;;;1999.90;999.90;;;16.00;99.90;;;;;;5051971;28;20973;-65
2022/05/22 05:45:04;;;;;;;1999.90;999.90;;;16.10;99.90;;;;;;5052455;28;20540;-65
2022/05/22 05:47:30;;;;;;;1999.90;999.90;;;15.90;99.90;;;;;;5054602;28;21053;-65
2022/05/22 05:49:57;;;;;;;1999.90;999.90;;;15.90;99.90;;;;;;5046689;28;20962;-65
2022/05/22 05:52:24;;;;;;;1999.90;999.90;;;15.70;99.90;;;;;;5047852;28;20516;-66
2022/05/22 05:54:52;;;;;;;1999.90;999.90;;;15.90;99.90;;;;;;5048095;28;20457;-65
2022/05/22 05:57:18;;;;;;;1999.90;999.90;;;15.70;99.90;;;;;;5050936;28;20477;-65
2022/05/22 05:59:45;;;;;;;1999.90;999.90;;;15.50;99.90;;;;;;5049444;28;22358;-65
2022/05/22 06:02:13;;;;;;;1999.90;999.90;;;15.50;99.90;;;;;;5048890;28;20466;-65
2022/05/22 06:04:40;;;;;;;1999.90;999.90;;;15.80;99.90;;;;;;5045020;28;20477;-65
2022/05/22 06:07:08;;;;;;;1999.90;999.90;;;15.80;99.90;;;;;;5050172;28;20489;-65
2022/05/22 06:09:35;;;;;;;1999.90;999.90;;;16.00;99.90;;;;;;5050996;28;20466;-66
2022/05/22 06:12:04;;;;;;;1999.90;999.90;;;16.00;99.90;;;;;;5053183;28;20776;-65
2022/05/22 06:14:31;;;;;;;1999.90;999.90;;;16.00;99.90;;;;;;5049531;28;20470;-64
2022/05/22 06:16:57;;;;;;;1999.90;999.90;;;15.80;99.90;;;;;;5045757;28;20486;-64
2022/05/22 06:22:05;;;;;;;1999.90;999.90;;;16.00;99.90;;;;;;5049997;28;20448;-65
2022/05/22 06:24:34;;;;;;;1999.90;999.90;;;16.10;99.90;;;;;;5052136;28;20968;-65
2022/05/22 06:27:01;;;;;;;1999.90;999.90;;;16.60;99.90;;;;;;5052037;28;20578;-65
2022/05/22 06:29:29;;;;;;;1999.90;999.90;;;16.50;99.90;;;;;;5044683;28;20465;-66
2022/05/22 06:31:55;;;;;;;1999.90;999.90;;;16.50;99.90;;;;;;5046304;28;20459;-65
2022/05/22 06:34:23;;;;;;;1999.90;999.90;;;16.60;99.90;;;;;;5046149;28;20458;-65
2022/05/22 06:36:50;;;;;;;1999.90;999.90;;;16.70;99.90;;;;;;5046547;28;20462;-67
2022/05/22 06:42:01;;;;;;;1999.90;999.90;;;16.20;99.90;;;;;;5050142;28;20460;-68
2022/05/22 06:44:29;;;;;;;1999.90;999.90;;;16.00;99.90;;;;;;5069192;28;20502;-65
2022/05/22 06:46:56;;;;;;;1999.90;999.90;;;16.00;99.90;;;;;;5058015;28;20543;-65
2022/05/22 06:49:22;;;;;;;1999.90;999.90;;;16.30;99.90;;;;;;5051775;28;20511;-66
2022/05/22 06:51:50;;;;;;;1999.90;999.90;;;16.40;99.90;;;;;;5050927;28;20982;-67
2022/05/22 06:54:17;;;;;;;1999.90;999.90;;;16.50;99.90;;;;;;5052435;28;20913;-64
2022/05/22 06:56:44;;;;;;;1999.90;999.90;;;16.70;99.90;;;;;;5052000;28;20462;-68
2022/05/22 06:59:10;;;;;;;1999.90;999.90;;;16.40;99.90;;;;;;5051743;28;20954;-66
2022/05/22 07:01:39;;;;;;;1999.90;999.90;;;16.80;99.90;;;;;;5053099;28;20458;-66
2022/05/22 07:04:06;;;;;;;1999.90;999.90;;;16.80;99.90;;;;;;5053428;28;20466;-66
2022/05/22 07:06:32;;;;;;;1999.90;999.90;;;16.30;99.90;;;;;;5049842;28;20482;-66
2022/05/22 07:08:59;;;;;;;1999.90;999.90;;;16.50;99.90;;;;;;5051881;28;20459;-65
2022/05/22 07:11:41;;;;;;;1999.90;999.90;;;16.70;99.90;;;;;;5054175;28;20466;-64
2022/05/22 07:14:09;;;;;;;1999.90;999.90;;;17.10;99.90;;;;;;5052309;28;20466;-65
2022/05/22 07:16:36;;;;;;;1999.90;999.90;;;17.30;99.90;;;;;;5052041;28;20482;-66
2022/05/22 07:19:05;;;;;;;1999.90;999.90;;;17.10;99.90;;;;;;5050823;28;20823;-66
2022/05/22 07:21:32;;;;;;;1999.90;999.90;;;17.40;99.90;;;;;;5054114;28;20474;-64
2022/05/22 07:23:59;;;;;;;1999.90;999.90;;;17.30;99.90;;;;;;5052395;28;20575;-66
2022/05/22 07:26:27;;;;;;;1999.90;999.90;;;17.50;99.90;;;;;;5049579;28;20892;-66
2022/05/22 07:28:54;;;;;;;1999.90;999.90;;;17.40;99.90;;;;;;5048495;28;20487;-65
2022/05/22 07:31:23;;;;;;;1999.90;999.90;;;17.70;99.90;;;;;;5052926;28;20953;-65
2022/05/22 07:33:50;;;;;;;1999.90;999.90;;;17.80;99.90;;;;;;5048752;28;20454;-65
2022/05/22 07:36:19;;;;;;;1999.90;999.90;;;17.70;99.90;;;;;;5054081;28;20512;-66
2022/05/22 07:38:47;;;;;;;1999.90;999.90;;;17.30;99.90;;;;;;5046805;28;20486;-67
2022/05/22 07:41:15;;;;;;;1999.90;999.90;;;16.80;99.90;;;;;;5047017;28;20458;-66
2022/05/22 07:43:42;;;;;;;1999.90;999.90;;;16.80;99.90;;;;;;5048436;28;20550;-67
2022/05/22 07:46:12;;;;;;;1999.90;999.90;;;17.20;99.90;;;;;;5050608;28;20543;-67
2022/05/22 07:48:39;;;;;;;1999.90;999.90;;;17.00;99.90;;;;;;5045888;28;20989;-63
2022/05/22 07:51:06;;;;;;;1999.90;999.90;;;17.60;99.90;;;;;;5045825;28;20519;-67
2022/05/22 07:53:34;;;;;;;1999.90;999.90;;;17.60;99.90;;;;;;5043727;28;20470;-64
2022/05/22 07:56:01;;;;;;;1999.90;999.90;;;17.20;99.90;;;;;;5047172;28;20458;-67
2022/05/22 07:58:28;;;;;;;1999.90;999.90;;;17.10;99.90;;;;;;5046086;28;20569;-66
2022/05/22 08:00:57;;;;;;;1999.90;999.90;;;16.70;99.90;;;;;;5044137;28;20455;-67
2022/05/22 08:03:24;;;;;;;1999.90;999.90;;;16.90;99.90;;;;;;5045664;28;20467;-67
2022/05/22 08:05:53;;;;;;;1999.90;999.90;;;17.00;99.90;;;;;;5050821;28;20543;-67
2022/05/22 08:08:20;;;;;;;1999.90;999.90;;;16.90;99.90;;;;;;5053297;28;20539;-66
2022/05/22 08:10:48;;;;;;;1999.90;999.90;;;17.40;99.90;;;;;;5054066;28;20457;-66
2022/05/22 08:13:15;;;;;;;1999.90;999.90;;;17.70;99.90;;;;;;5048434;28;20470;-65
2022/05/22 08:15:43;;;;;;;1999.90;999.90;;;17.90;99.90;;;;;;5054245;28;20511;-67
2022/05/22 08:18:10;;;;;;;1999.90;999.90;;;17.60;99.90;;;;;;5054697;28;20486;-66
2022/05/22 08:20:39;;;;;;;1999.90;999.90;;;17.50;99.90;;;;;;5052421;28;20505;-66
2022/05/22 08:23:09;;;;;;;1999.90;999.90;;;17.70;99.90;;;;;;5050682;28;20842;-67
2022/05/22 08:25:36;;;;;;;1999.90;999.90;;;17.70;99.90;;;;;;5048908;28;21221;-66
2022/05/22 08:28:05;;;;;;;1999.90;999.90;;;17.60;99.90;;;;;;5052921;28;20498;-68
2022/05/22 08:30:32;;;;;;;1999.90;999.90;;;17.60;99.90;;;;;;5048815;28;20515;-66
2022/05/22 08:33:00;;;;;;;1999.90;999.90;;;17.80;99.90;;;;;;5045406;28;22104;-64
2022/05/22 08:35:29;;;;;;;1999.90;999.90;;;18.00;99.90;;;;;;5047041;28;20454;-66
2022/05/22 08:37:56;;;;;;;1999.90;999.90;;;18.20;99.90;;;;;;5050568;28;20482;-66
2022/05/22 08:40:25;;;;;;;1999.90;999.90;;;18.40;99.90;;;;;;5052015;28;20901;-67
2022/05/22 08:43:01;;;;;;;1999.90;999.90;;;18.20;99.90;;;;;;5052729;28;20457;-64
2022/05/22 08:45:32;;;;;;;1999.90;999.90;;;18.40;99.90;;;;;;5054627;28;20540;-65
2022/05/22 08:48:07;;;;;;;1999.90;999.90;;;18.50;99.90;;;;;;5051722;28;20483;-65
2022/05/22 08:50:35;;;;;;;1999.90;999.90;;;18.70;99.90;;;;;;5056593;28;20550;-66
2022/05/22 08:53:06;;;;;;;1999.90;999.90;;;18.80;99.90;;;;;;5051906;28;21024;-65
2022/05/22 09:01:18;;;;;;;1999.90;999.90;;;18.60;99.90;;;;;;5050639;28;20680;-66
2022/05/22 09:03:51;;;;;;;1999.90;999.90;;;18.50;99.90;;;;;;5042986;28;20517;-65
2022/05/22 09:06:26;;;;;;;1999.90;999.90;;;18.50;99.90;;;;;;5051390;28;20490;-65
2022/05/22 09:08:53;;;;;;;1999.90;999.90;;;18.60;99.90;;;;;;5054078;28;20564;-66
2022/05/22 09:11:28;;;;;;;1999.90;999.90;;;18.60;99.90;;;;;;5048604;28;20476;-66
2022/05/22 09:14:03;;;;;;;1999.90;999.90;;;18.70;99.90;;;;;;5050251;28;20504;-65
2022/05/22 09:16:35;;;;;;;1999.90;999.90;;;18.70;99.90;;;;;;5053423;28;20454;-66
2022/05/22 09:19:08;;;;;;;1999.90;999.90;;;18.80;99.90;;;;;;5051698;28;20522;-66
2022/05/22 09:21:46;;;;;;;1999.90;999.90;;;18.60;99.90;;;;;;5055876;28;20524;-65
2022/05/22 09:24:24;;;;;;;1999.90;999.90;;;18.90;99.90;;;;;;5052764;28;20454;-63
2022/05/22 09:27:00;;;;;;;1999.90;999.90;;;18.90;99.90;;;;;;5049058;28;20477;-66
2022/05/22 09:29:47;;;;;;;1999.90;999.90;;;18.90;99.90;;;;;;5052027;28;20461;-66
2022/05/22 09:32:32;;;;;;;1999.90;999.90;;;18.90;99.90;;;;;;5051110;28;20462;-66
2022/05/22 09:35:08;;;;;;;1999.90;999.90;;;18.90;99.90;;;;;;5051635;28;22520;-66
2022/05/22 09:37:47;;;;;;;1999.90;999.90;;;18.90;99.90;;;;;;5056189;28;20477;-66
2022/05/22 09:40:21;;;;;;;1999.90;999.90;;;19.10;99.90;;;;;;5047724;28;20454;-67
2022/05/22 09:43:14;;;;;;;1999.90;999.90;;;18.80;99.90;;;;;;5053536;28;20506;-67
2022/05/22 09:45:55;;;;;;;1999.90;999.90;;;18.80;99.90;;;;;;5059521;28;20464;-67
2022/05/22 09:48:50;;;;;;;1999.90;999.90;;;18.80;99.90;;;;;;5054524;28;20477;-67
2022/05/22 09:51:26;;;;;;;1999.90;999.90;;;18.70;99.90;;;;;;5057091;28;20458;-66
2022/05/22 09:54:04;;;;;;;1999.90;999.90;;;18.80;99.90;;;;;;5054763;28;20521;-66
2022/05/22 09:56:41;;;;;;;1999.90;999.90;;;18.50;99.90;;;;;;5057345;28;20458;-66
2022/05/22 09:59:28;;;;;;;1999.90;999.90;;;18.60;99.90;;;;;;5055024;28;20454;-68
2022/05/22 10:01:57;;;;;;;1999.90;999.90;;;18.60;99.90;;;;;;5055636;28;20453;-64
2022/05/22 10:04:36;;;;;;;1999.90;999.90;;;18.70;99.90;;;;;;5051003;28;20454;-67
2022/05/22 10:07:13;;;;;;;1999.90;999.90;;;18.80;99.90;;;;;;5053473;28;21562;-64
2022/05/22 10:09:50;;;;;;;1999.90;999.90;;;19.00;99.60;;;;;;5054218;28;20955;-67
2022/05/22 10:12:34;;;;;;;1999.90;999.90;;;19.00;99.90;;;;;;5056776;28;20519;-63
2022/05/22 10:15:22;;;;;;;1999.90;999.90;;;19.20;99.50;;;;;;5046594;28;20466;-62
2022/05/22 10:18:07;;;;;;;1999.90;999.90;;;19.40;98.90;;;;;;5047591;28;20470;-67
2022/05/22 10:20:46;;;;;;;1999.90;999.90;;;19.30;99.70;;;;;;5056313;28;20458;-64
2022/05/22 10:23:23;;;;;;;1999.90;999.90;;;19.60;99.10;;;;;;5065026;28;20437;-64
2022/05/22 10:26:00;;;;;;;1999.90;999.90;;;19.80;99.00;;;;;;5061999;28;20457;-64
2022/05/22 10:28:32;;;;;;;1999.90;999.90;;;19.70;98.40;;;;;;5054616;28;21050;-64
2022/05/22 10:31:04;;;;;;;1999.90;999.90;;;19.40;98.40;;;;;;5055720;28;20450;-65
2022/05/22 10:33:37;;;;;;;1999.90;999.90;;;19.30;98.60;;;;;;5056349;28;20799;-67
2022/05/22 10:36:09;;;;;;;1999.90;999.90;;;19.30;98.90;;;;;;5056979;28;20474;-68
2022/05/22 10:38:41;;;;;;;1999.90;999.90;;;19.10;99.30;;;;;;5056270;28;20482;-66
2022/05/22 10:44:06;;;;;;;1999.90;999.90;;;18.90;99.70;;;;;;5056922;28;20433;-67
2022/05/22 10:46:44;;;;;;;1999.90;999.90;;;19.00;99.50;;;;;;5055374;28;20587;-68
2022/05/22 10:49:11;;;;;;;1999.90;999.90;;;19.00;99.60;;;;;;5056819;28;20458;-67
2022/05/22 10:51:39;;;;;;;1999.90;999.90;;;19.20;99.80;;;;;;5057986;28;20801;-67
2022/05/22 10:54:06;;;;;;;1999.90;999.90;;;19.10;99.10;;;;;;5055733;28;20471;-67
2022/05/22 10:56:34;;;;;;;1999.90;999.90;;;19.30;98.50;;;;;;5057870;28;20504;-67
2022/05/22 10:59:02;;;;;;;1999.90;999.90;;;19.10;98.80;;;;;;5056546;28;20453;-67
2022/05/22 11:01:31;;;;;;;1999.90;999.90;;;19.10;98.20;;;;;;5058355;28;20466;-65
2022/05/22 11:04:05;;;;;;;1999.90;999.90;;;19.30;98.60;;;;;;5057689;28;20460;-64
2022/05/22 11:06:33;;;;;;;1999.90;999.90;;;19.70;98.50;;;;;;5054917;28;20477;-64
2022/05/22 11:09:01;;;;;;;1999.90;999.90;;;19.60;97.50;;;;;;5056887;28;20510;-67
2022/05/22 11:11:33;;;;;;;1999.90;999.90;;;19.20;97.80;;;;;;5055856;28;20512;-66
2022/05/22 11:14:09;;;;;;;1999.90;999.90;;;19.20;98.80;;;;;;5054399;28;20457;-65
2022/05/22 11:16:36;;;;;;;1999.90;999.90;;;19.30;98.00;;;;;;5057482;28;20450;-64
2022/05/22 11:19:09;;;;;;;1999.90;999.90;;;19.40;97.60;;;;;;5056959;28;20567;-67
2022/05/22 11:21:41;;;;;;;1999.90;999.90;;;19.30;98.90;;;;;;5058915;28;20462;-66
2022/05/22 11:24:32;;;;;;;1999.90;999.90;;;19.40;98.00;;;;;;5055893;28;20464;-66
2022/05/22 11:27:07;;;;;;;1999.90;999.90;;;19.50;97.40;;;;;;5054373;28;20485;-65
2022/05/22 11:29:43;;;;;;;1999.90;999.90;;;19.80;97.40;;;;;;5058164;28;20872;-65
2022/05/22 11:32:20;;;;;;;1999.90;999.90;;;20.00;96.60;;;;;;5055998;28;20516;-64
2022/05/22 11:35:07;;;;;;;1999.90;999.90;;;19.80;96.10;;;;;;5052786;28;20487;-65
2022/05/22 11:37:45;;;;;;;1999.90;999.90;;;19.90;97.20;;;;;;5057443;28;20474;-65
2022/05/22 11:40:26;;;;;;;1999.90;999.90;;;20.10;97.00;;;;;;5056676;28;20583;-65
2022/05/22 11:43:05;;;;;;;1999.90;999.90;;;20.30;96.90;;;;;;5052654;28;20503;-64
2022/05/22 11:45:39;;;;;;;1999.90;999.90;;;20.20;96.30;;;;;;5057346;28;20899;-64
2022/05/22 11:48:36;;;;;;;1999.90;999.90;;;20.00;95.90;;;;;;5055323;28;21134;-65
2022/05/22 11:51:20;;;;;;;1999.90;999.90;;;19.90;97.10;;;;;;5055484;28;20866;-64
2022/05/22 11:54:04;;;;;;;1999.90;999.90;;;20.40;96.30;;;;;;5053034;28;20859;-64
2022/05/22 11:56:49;;;;;;;1999.90;999.90;;;20.50;96.30;;;;;;5053629;28;20450;-64
2022/05/22 11:59:34;;;;;;;1999.90;999.90;;;20.70;96.10;;;;;;5056232;28;20508;-64
2022/05/22 12:02:10;;;;;;;1999.90;999.90;;;20.60;95.40;;;;;;5054655;28;21161;-64
2022/05/22 12:05:08;;;;;;;1999.90;999.90;;;20.60;95.80;;;;;;5056524;28;20541;-63
2022/05/22 12:08:00;;;;;;;1999.90;999.90;;;20.20;96.10;;;;;;5057116;28;20532;-64
2022/05/22 12:10:31;;;;;;;1999.90;999.90;;;20.60;95.90;;;;;;5051647;28;20454;-63
2022/05/22 12:13:05;;;;;;;1999.90;999.90;;;20.30;96.00;;;;;;5055924;28;20458;-64
2022/05/22 12:15:39;;;;;;;1999.90;999.90;;;19.80;96.50;;;;;;5057127;28;20458;-66
2022/05/22 12:18:27;;;;;;;1999.90;999.90;;;19.50;97.20;;;;;;5057015;28;20513;-65
2022/05/22 12:21:00;;;;;;;1999.90;999.90;;;19.80;96.50;;;;;;5053111;28;21002;-63
2022/05/22 12:23:29;;;;;;;1999.90;999.90;;;20.20;96.70;;;;;;5054460;28;20458;-64
2022/05/22 12:25:59;;;;;;;1999.90;999.90;;;20.50;96.50;;;;;;5057768;28;20924;-66
2022/05/22 12:28:38;;;;;;;1999.90;999.90;;;20.90;96.00;;;;;;5056922;28;20477;-64